Time;durP1;ratioP1;P1;durP2;ratioP2;P2;SDS_P1;SDS_P2;PMS_P1;PMS_P2;Temp;Humidity;BMP_temperature;BMP_pressure;BME280_temperature;BME280_humidity;BME280_pressure;Samples;Min_cycle;Max_cycle;Signal;HPM_P1;HPM_P2
2022/03/03 00:01:45;;;;;;;6.35;3.20;;;;;;;25.97;25.95;96802.25;5027498;28;20574;-27
2022/03/03 00:04:10;;;;;;;5.13;3.20;;;;;;;25.98;25.81;96795.25;5028900;28;20025;-32
2022/03/03 00:06:36;;;;;;;4.38;3.15;;;;;;;25.95;25.95;96801.50;5026570;28;20043;-29
2022/03/03 00:09:02;;;;;;;5.40;3.00;;;;;;;25.97;25.87;96799.63;5029422;28;20120;-30
2022/03/03 00:11:30;;;;;;;6.63;2.95;;;;;;;25.97;26.07;96794.38;5028662;28;20056;-29
2022/03/03 00:13:55;;;;;;;3.75;2.90;;;;;;;25.96;25.99;96793.56;5030280;28;20453;-31
2022/03/03 00:16:20;;;;;;;5.20;2.60;;;;;;;25.95;25.90;96794.50;5029935;28;20036;-35
2022/03/03 00:18:46;;;;;;;3.25;2.42;;;;;;;25.96;25.92;96792.69;5031814;28;20063;-34
2022/03/03 00:21:11;;;;;;;5.47;2.35;;;;;;;25.96;25.92;96787.44;5013067;28;20036;-33
2022/03/03 00:23:37;;;;;;;5.25;2.80;;;;;;;25.96;25.82;96788.31;5030812;28;20178;-33
2022/03/03 00:26:02;;;;;;;3.35;2.70;;;;;;;25.96;25.97;96792.69;5033418;28;20466;-30
2022/03/03 00:28:28;;;;;;;4.22;2.83;;;;;;;25.96;25.95;96800.56;5032537;28;20025;-30
2022/03/03 00:30:53;;;;;;;3.55;2.60;;;;;;;25.95;26.04;96791.00;5029207;28;20024;-31
2022/03/03 00:33:19;;;;;;;8.27;4.68;;;;;;;25.96;26.20;96792.69;5030214;28;20056;-29
2022/03/03 00:35:44;;;;;;;6.43;3.50;;;;;;;25.94;25.95;96802.44;5032016;28;20024;-28
2022/03/03 00:38:10;;;;;;;4.63;3.13;;;;;;;25.93;26.10;96798.13;5032234;28;20494;-27
2022/03/03 00:40:35;;;;;;;4.90;2.65;;;;;;;25.93;25.87;96798.13;5030756;28;20034;-33
2022/03/03 00:43:01;;;;;;;6.22;2.65;;;;;;;25.92;25.92;96796.41;5028445;28;20636;-29
2022/03/03 00:45:26;;;;;;;3.75;2.53;;;;;;;25.92;25.73;96793.78;5010783;28;20036;-28
2022/03/03 00:47:52;;;;;;;3.95;2.80;;;;;;;25.90;25.85;96793.88;5031405;28;20072;-30
2022/03/03 00:50:17;;;;;;;3.72;2.72;;;;;;;25.91;25.96;96799.97;5033364;28;20032;-33
2022/03/03 00:52:43;;;;;;;3.55;2.60;;;;;;;25.91;26.02;96808.72;5029857;28;20033;-29
2022/03/03 00:55:08;;;;;;;4.25;2.50;;;;;;;25.90;25.90;96806.16;5030531;28;20028;-32
2022/03/03 00:57:34;;;;;;;3.33;2.33;;;;;;;25.91;25.95;96810.47;5029834;28;20033;-35
2022/03/03 01:00:00;;;;;;;3.95;2.80;;;;;;;25.90;25.99;96808.78;5031722;28;20033;-30
2022/03/03 01:02:25;;;;;;;4.00;2.88;;;;;;;25.91;26.00;96805.22;5028857;28;20037;-31
2022/03/03 01:04:51;;;;;;;7.18;2.67;;;;;;;25.91;26.03;96807.84;5028913;28;20090;-32
2022/03/03 01:07:16;;;;;;;4.53;2.45;;;;;;;25.90;25.90;96804.38;5031555;28;20029;-33
2022/03/03 01:09:41;;;;;;;4.28;2.30;;;;;;;25.91;26.06;96805.22;5029158;28;20032;-32
2022/03/03 01:12:07;;;;;;;4.05;2.40;;;;;;;25.91;26.03;96794.72;5028238;28;20020;-29
2022/03/03 01:14:33;;;;;;;5.55;2.78;;;;;;;25.90;26.09;96793.88;5029274;28;20522;-31
2022/03/03 01:16:58;;;;;;;5.85;2.40;;;;;;;25.90;26.10;96787.78;5031066;28;20025;-32
2022/03/03 01:19:24;;;;;;;4.25;2.60;;;;;;;25.90;26.15;96793.03;5027881;28;20045;-31
2022/03/03 01:21:49;;;;;;;4.40;2.33;;;;;;;25.90;26.08;96787.78;5030301;28;20025;-33
2022/03/03 01:24:15;;;;;;;4.28;2.30;;;;;;;25.90;25.96;96782.53;5026444;28;20048;-32
2022/03/03 01:26:40;;;;;;;4.05;2.15;;;;;;;25.90;26.07;96793.03;5029426;28;20032;-31
2022/03/03 01:29:06;;;;;;;3.50;2.60;;;;;;;25.90;26.00;96782.53;5034689;28;20041;-30
2022/03/03 01:31:31;;;;;;;3.45;2.58;;;;;;;25.89;26.08;96783.47;5037932;28;20025;-28
2022/03/03 01:33:56;;;;;;;5.15;2.20;;;;;;;25.89;26.01;96786.09;5037757;28;20041;-33
2022/03/03 01:36:22;;;;;;;4.05;2.20;;;;;;;25.90;26.09;96779.91;5036662;28;20682;-32
2022/03/03 01:38:47;;;;;;;3.35;2.33;;;;;;;25.90;26.37;96772.03;5029550;28;20040;-32
2022/03/03 01:41:13;;;;;;;7.32;2.28;;;;;;;25.88;25.94;96774.75;5037389;28;20032;-34
2022/03/03 01:43:38;;;;;;;3.70;2.45;;;;;;;25.89;26.05;96773.81;5030571;28;20028;-31
2022/03/03 01:46:04;;;;;;;3.80;2.25;;;;;;;25.89;26.20;96780.84;5031433;28;20032;-30
2022/03/03 01:48:30;;;;;;;3.17;2.47;;;;;;;25.89;26.11;96770.34;5028988;28;20088;-36
2022/03/03 01:50:55;;;;;;;4.63;2.20;;;;;;;25.88;26.21;96752.88;5011013;28;20048;-28
2022/03/03 01:53:20;;;;;;;5.00;2.40;;;;;;;25.87;26.09;96746.78;5030573;28;20040;-32
2022/03/03 01:55:46;;;;;;;6.07;2.25;;;;;;;25.87;26.10;96743.31;5031345;28;20041;-30
2022/03/03 01:58:12;;;;;;;3.13;2.30;;;;;;;25.88;25.97;96737.13;5028385;28;20052;-34
2022/03/03 02:00:37;;;;;;;3.03;2.20;;;;;;;25.86;26.13;96729.34;5011260;28;20028;-29
2022/03/03 02:03:02;;;;;;;4.45;2.50;;;;;;;25.87;26.01;96724.94;5030026;28;20585;-34
2022/03/03 02:05:29;;;;;;;3.92;2.28;;;;;;;25.87;26.34;96724.94;5028549;28;20044;-29
2022/03/03 02:07:54;;;;;;;3.08;2.15;;;;;;;25.86;26.06;96728.50;5030139;28;20025;-31
2022/03/03 02:10:19;;;;;;;2.45;2.15;;;;;;;25.87;26.11;96732.81;5027555;28;20044;-33
2022/03/03 02:12:45;;;;;;;3.17;2.28;;;;;;;25.87;26.24;96732.81;5028962;28;20027;-27
2022/03/03 02:15:18;;;;;;;2.85;1.92;;;;;;;25.82;26.08;96726.03;5028336;28;20040;-26
2022/03/03 02:17:43;;;;;;;3.85;2.42;;;;;;;25.86;26.12;96729.34;5027995;28;20120;-30
2022/03/03 02:20:19;;;;;;;3.78;2.25;;;;;;;25.86;26.04;96733.75;5028380;28;20045;-29
2022/03/03 02:22:44;;;;;;;3.50;2.30;;;;;;;25.84;26.11;96723.31;5025021;28;20036;-30
2022/03/03 02:25:10;;;;;;;4.10;2.30;;;;;;;25.83;26.15;96729.50;5030147;28;20021;-28
2022/03/03 02:27:35;;;;;;;5.60;2.20;;;;;;;25.84;26.15;96728.56;5028630;28;20581;-31
2022/03/03 02:30:00;;;;;;;4.22;2.15;;;;;;;25.85;26.16;96721.56;5030784;28;20017;-34
2022/03/03 02:32:26;;;;;;;2.83;1.90;;;;;;;25.82;26.15;96723.41;5027759;28;20220;-29
2022/03/03 02:34:51;;;;;;;4.53;2.10;;;;;;;25.83;25.87;96732.97;5029122;28;20873;-29
2022/03/03 02:37:17;;;;;;;3.05;1.90;;;;;;;25.83;26.23;96732.97;5030961;28;20029;-31
2022/03/03 02:39:43;;;;;;;7.47;2.08;;;;;;;25.83;26.13;96738.22;5024966;28;20713;-32
2022/03/03 02:42:09;;;;;;;3.20;2.13;;;;;;;25.79;26.22;96730.63;5029241;28;20533;-31
2022/03/03 02:44:34;;;;;;;2.15;1.77;;;;;;;25.82;26.19;96741.78;5032086;28;20033;-29
2022/03/03 02:47:00;;;;;;;4.03;2.10;;;;;;;25.81;26.29;96732.22;5022234;28;20033;-30
2022/03/03 02:49:26;;;;;;;2.75;1.80;;;;;;;25.81;26.27;96742.72;5041298;28;20468;-33
2022/03/03 02:51:51;;;;;;;3.95;2.20;;;;;;;25.81;26.24;96742.72;5040185;28;20079;-33
2022/03/03 02:54:17;;;;;;;2.63;1.92;;;;;;;25.81;26.16;96753.22;5039530;28;20032;-28
2022/03/03 02:59:26;;;;;;;2.42;1.85;;;;;;;25.81;26.08;96740.09;5039609;28;20513;-31
2022/03/03 03:01:51;;;;;;;3.25;1.95;;;;;;;25.80;26.10;96730.53;5039139;28;20029;-28
2022/03/03 03:04:17;;;;;;;2.42;1.88;;;;;;;25.80;26.15;96730.53;5040619;28;20016;-28
2022/03/03 03:06:43;;;;;;;4.07;2.08;;;;;;;25.80;26.14;96725.28;5040673;28;20025;-27
2022/03/03 03:09:08;;;;;;;4.35;2.30;;;;;;;25.80;26.22;96724.44;5040398;28;20028;-29
2022/03/03 03:11:33;;;;;;;2.38;1.60;;;;;;;25.79;26.18;96718.34;5040261;28;20040;-32
2022/03/03 03:13:59;;;;;;;2.30;1.60;;;;;;;25.80;26.31;96714.78;5039003;28;20403;-32
2022/03/03 03:16:24;;;;;;;3.50;1.73;;;;;;;25.80;26.08;96716.56;5033906;28;20036;-29
2022/03/03 03:18:50;;;;;;;2.63;2.00;;;;;;;25.79;26.29;96715.72;5029906;28;20025;-30
2022/03/03 03:21:15;;;;;;;2.90;1.88;;;;;;;25.79;26.07;96717.50;5027501;28;20668;-28
2022/03/03 03:23:40;;;;;;;2.63;1.70;;;;;;;25.78;26.28;96711.38;5029064;28;20025;-29
2022/03/03 03:26:06;;;;;;;2.85;2.13;;;;;;;25.78;26.11;96714.00;5030431;28;20074;-31
2022/03/03 03:28:32;;;;;;;2.03;1.60;;;;;;;25.78;26.22;96711.38;5032038;28;20017;-31
2022/03/03 03:30:57;;;;;;;2.30;1.90;;;;;;;25.76;26.15;96715.88;5039305;28;20033;-29
2022/03/03 03:33:22;;;;;;;2.70;1.67;;;;;;;25.77;26.14;96704.44;5032388;28;20537;-31
2022/03/03 03:35:48;;;;;;;2.40;1.67;;;;;;;25.77;26.28;96703.59;5028984;28;20549;-27
2022/03/03 03:38:13;;;;;;;2.50;1.75;;;;;;;25.77;26.27;96703.59;5027983;28;20036;-31
2022/03/03 03:40:39;;;;;;;2.67;2.03;;;;;;;25.76;26.22;96702.75;5029527;28;20036;-34
2022/03/03 03:43:04;;;;;;;1.75;1.60;;;;;;;25.75;26.22;96698.44;5030184;28;21212;-29
2022/03/03 03:45:31;;;;;;;2.15;1.65;;;;;;;25.75;26.38;96701.06;5029253;28;20564;-32
2022/03/03 03:47:56;;;;;;;2.83;1.77;;;;;;;25.75;26.26;96701.06;5012005;28;20136;-28
2022/03/03 03:50:22;;;;;;;3.60;2.13;;;;;;;25.75;26.17;96695.81;5033995;28;20819;-31
2022/03/03 03:52:47;;;;;;;2.50;1.80;;;;;;;25.75;26.12;96695.81;5031489;28;20047;-29
2022/03/03 03:55:13;;;;;;;3.60;1.85;;;;;;;25.75;26.26;96695.81;5030149;28;20028;-34
2022/03/03 03:57:38;;;;;;;3.72;1.67;;;;;;;25.75;26.21;96695.81;5037080;28;20045;-30
2022/03/03 04:00:05;;;;;;;1.80;1.70;;;;;;;25.74;26.11;96694.09;5036735;28;20131;-31
2022/03/03 04:02:31;;;;;;;2.40;1.65;;;;;;;25.73;26.29;96692.41;5036400;28;20044;-32
2022/03/03 04:04:56;;;;;;;3.40;1.65;;;;;;;25.74;26.22;96688.03;5033329;28;20029;-34
2022/03/03 04:07:22;;;;;;;2.88;1.75;;;;;;;25.73;26.11;96687.16;5017130;28;20721;-34
2022/03/03 04:09:47;;;;;;;3.17;1.80;;;;;;;25.73;26.08;96692.41;5033680;28;20509;-29
2022/03/03 04:12:13;;;;;;;4.25;1.63;;;;;;;25.71;26.27;96683.78;5033737;28;20313;-32
2022/03/03 04:14:38;;;;;;;2.33;1.63;;;;;;;25.72;26.22;96685.47;5031615;28;20028;-29
2022/03/03 04:17:04;;;;;;;2.03;1.75;;;;;;;25.71;26.30;96681.16;5032707;28;20028;-33
2022/03/03 04:19:29;;;;;;;3.80;1.70;;;;;;;25.71;26.29;96683.78;5030592;28;20029;-32
2022/03/03 04:21:54;;;;;;;2.70;1.50;;;;;;;25.70;26.31;96687.31;5030811;28;20036;-30
2022/03/03 04:24:20;;;;;;;2.38;1.75;;;;;;;25.71;26.23;96689.03;5031059;28;20937;-31
2022/03/03 04:26:45;;;;;;;2.10;1.67;;;;;;;25.70;26.11;96688.19;5032977;28;20041;-31
2022/03/03 04:29:11;;;;;;;1.85;1.60;;;;;;;25.71;26.21;96689.03;5032281;28;20025;-28
2022/03/03 04:31:36;;;;;;;3.40;1.85;;;;;;;25.70;26.37;96682.06;5031613;28;21801;-31
2022/03/03 04:34:02;;;;;;;2.65;1.67;;;;;;;25.69;26.33;96672.50;5030825;28;20037;-32
2022/03/03 04:36:27;;;;;;;2.13;1.25;;;;;;;25.69;26.21;96675.13;5030649;28;20716;-28
2022/03/03 04:38:52;;;;;;;2.03;1.73;;;;;;;25.67;26.24;96675.22;5030961;28;20028;-31
2022/03/03 04:41:18;;;;;;;3.65;1.85;;;;;;;25.70;26.05;96682.06;5029151;28;20037;-34
2022/03/03 04:43:43;;;;;;;2.95;1.58;;;;;;;25.68;26.34;96673.44;5029247;28;20038;-29
2022/03/03 04:46:09;;;;;;;2.33;1.50;;;;;;;25.67;26.31;96679.63;5031597;28;20029;-33
2022/03/03 04:48:35;;;;;;;1.92;1.52;;;;;;;25.68;26.24;96678.69;5031136;28;20039;-27
2022/03/03 04:51:00;;;;;;;2.53;1.83;;;;;;;25.67;26.26;96677.00;5030895;28;20045;-32
2022/03/03 04:53:26;;;;;;;1.70;1.60;;;;;;;25.66;26.20;96670.91;5028962;28;20131;-29
2022/03/03 04:55:51;;;;;;;5.90;1.60;;;;;;;25.65;26.13;96668.34;5029425;28;20395;-32
2022/03/03 04:58:17;;;;;;;2.28;1.63;;;;;;;25.65;26.33;96668.34;5030007;28;20033;-30
2022/03/03 05:00:42;;;;;;;2.45;1.67;;;;;;;25.66;26.32;96670.06;5032847;28;20090;-33
2022/03/03 05:03:07;;;;;;;2.47;1.77;;;;;;;25.66;26.22;96670.06;5032134;28;20130;-33
2022/03/03 05:05:33;;;;;;;2.03;1.80;;;;;;;25.66;26.34;96670.06;5031587;28;20122;-33
2022/03/03 05:07:58;;;;;;;3.17;1.98;;;;;;;25.64;26.31;96662.28;5032993;28;20675;-31
2022/03/03 05:10:24;;;;;;;3.40;1.73;;;;;;;25.64;26.24;96667.53;5027911;28;20040;-32
2022/03/03 05:12:49;;;;;;;1.98;1.50;;;;;;;25.64;26.21;96662.28;5030541;28;20049;-31
2022/03/03 05:15:14;;;;;;;1.90;1.70;;;;;;;25.63;26.31;96665.81;5030986;28;20029;-27
2022/03/03 05:17:40;;;;;;;2.05;1.52;;;;;;;25.64;26.23;96666.69;5029186;28;20055;-33
2022/03/03 05:20:05;;;;;;;1.95;1.42;;;;;;;25.62;26.25;96663.31;5028440;28;20033;-31
2022/03/03 05:22:31;;;;;;;2.40;1.50;;;;;;;25.63;26.17;96657.94;5031068;28;20029;-32
2022/03/03 05:24:56;;;;;;;2.38;1.58;;;;;;;25.63;26.19;96657.13;5031174;28;20040;-30
2022/03/03 05:27:22;;;;;;;2.55;1.88;;;;;;;25.61;26.23;96649.31;5030659;28;20033;-30
2022/03/03 05:29:47;;;;;;;2.05;1.70;;;;;;;25.62;26.12;96647.56;5030567;28;20028;-32
2022/03/03 05:32:12;;;;;;;2.33;1.50;;;;;;;25.61;26.23;96649.31;5036095;28;20471;-33
2022/03/03 05:34:38;;;;;;;1.90;1.58;;;;;;;25.61;26.19;96644.06;5039695;28;20044;-30
2022/03/03 05:37:05;;;;;;;1.83;1.25;;;;;;;25.61;26.21;96646.69;5035203;28;20052;-31
2022/03/03 05:39:31;;;;;;;1.90;1.52;;;;;;;25.62;26.23;96642.31;5039577;28;20056;-29
2022/03/03 05:41:56;;;;;;;1.75;1.58;;;;;;;25.61;26.26;96638.81;5021809;28;20130;-31
2022/03/03 05:44:24;;;;;;;9.57;3.03;;;;;;;25.61;26.30;96640.59;5040899;28;20585;-29
2022/03/03 05:46:49;;;;;;;10.88;2.85;;;;;;;25.59;26.16;96640.66;5041784;28;20059;-31
2022/03/03 05:49:20;;;;;;;2.75;1.88;;;;;;;25.59;26.15;96642.47;5040934;28;20021;-34
2022/03/03 05:51:45;;;;;;;2.33;1.80;;;;;;;25.59;26.09;96642.47;5019512;28;20057;-30
2022/03/03 05:54:11;;;;;;;2.88;1.80;;;;;;;25.59;26.28;96645.09;5041176;28;20048;-31
2022/03/03 05:56:38;;;;;;;4.13;1.95;;;;;;;25.57;26.32;96635.53;5040521;28;20036;-31
2022/03/03 05:59:06;;;;;;;18.92;3.15;;;;;;;25.60;26.28;96638.91;5022296;28;20723;-32
2022/03/03 06:01:31;;;;;;;11.32;3.78;;;;;;;25.59;26.41;96639.84;5019875;28;20526;-32
2022/03/03 06:03:57;;;;;;;21.65;4.40;;;;;;;25.59;26.39;96645.09;5020270;28;20118;-30
2022/03/03 06:06:25;;;;;;;9.38;3.97;;;;;;;25.60;26.54;96644.16;5020830;28;20035;-32
2022/03/03 06:09:03;;;;;;;7.93;3.95;;;;;;;25.60;26.52;96638.91;5037938;28;20940;-33
2022/03/03 06:11:29;;;;;;;13.52;4.20;;;;;;;25.61;26.48;96640.59;5025235;28;20067;-26
2022/03/03 06:14:08;;;;;;;10.98;3.53;;;;;;;25.61;26.47;96635.34;5008514;28;20112;-32
2022/03/03 06:16:33;;;;;;;13.85;3.92;;;;;;;25.62;26.30;96644.94;5013720;28;20040;-30
2022/03/03 06:18:59;;;;;;;12.80;4.28;;;;;;;25.63;26.40;96636.13;5028228;28;20053;-29
2022/03/03 06:21:24;;;;;;;16.70;4.43;;;;;;;25.63;26.41;96633.50;5027620;28;20024;-31
2022/03/03 06:23:50;;;;;;;11.25;4.07;;;;;;;25.64;26.48;96640.44;5029054;28;20437;-33
2022/03/03 06:26:17;;;;;;;10.15;4.40;;;;;;;25.64;26.51;96640.44;5028262;28;20039;-31
2022/03/03 06:28:42;;;;;;;11.63;4.00;;;;;;;25.66;26.90;96646.47;5013015;28;20032;-33
2022/03/03 06:31:07;;;;;;;10.88;4.10;;;;;;;25.66;26.94;96644.66;5026414;28;20091;-33
2022/03/03 06:33:33;;;;;;;18.55;4.07;;;;;;;25.67;26.76;96650.78;5025587;28;20032;-33
2022/03/03 06:35:59;;;;;;;14.15;4.25;;;;;;;25.67;26.67;96640.28;5031317;28;20039;-29
2022/03/03 06:38:25;;;;;;;8.98;3.72;;;;;;;25.67;26.71;96637.66;5032652;28;20029;-36
2022/03/03 06:40:50;;;;;;;10.38;3.72;;;;;;;25.69;26.54;96641.03;5026941;28;20029;-27
2022/03/03 06:43:16;;;;;;;11.75;4.20;;;;;;;25.69;26.55;96638.41;5027150;28;20083;-30
2022/03/03 06:45:41;;;;;;;10.75;4.20;;;;;;;25.70;26.67;96645.34;5026277;28;20398;-36
2022/03/03 06:48:07;;;;;;;12.35;4.65;;;;;;;25.70;26.63;96645.34;5036324;28;20086;-32
2022/03/03 06:50:39;;;;;;;14.52;4.30;;;;;;;25.70;26.56;96624.34;5035003;28;20024;-28
2022/03/03 06:53:04;;;;;;;9.70;3.90;;;;;;;25.71;26.68;96620.81;5031107;28;20902;-33
2022/03/03 06:55:30;;;;;;;8.85;3.70;;;;;;;25.71;26.93;96615.56;5024736;28;20029;-31
2022/03/03 06:57:57;;;;;;;8.40;3.85;;;;;;;25.72;26.36;96612.00;5035637;28;20028;-28
2022/03/03 07:00:29;;;;;;;9.63;4.05;;;;;;;25.72;26.58;96612.00;5028916;28;21114;-30
2022/03/03 07:02:54;;;;;;;10.70;3.50;;;;;;;25.74;26.78;96604.03;5030373;28;20037;-30
2022/03/03 07:05:21;;;;;;;9.02;3.80;;;;;;;25.74;26.65;96598.78;5026991;28;20476;-28
2022/03/03 07:07:51;;;;;;;22.15;4.53;;;;;;;25.74;26.45;96589.13;5013950;28;20040;-31
2022/03/03 07:10:23;;;;;;;11.45;4.13;;;;;;;25.75;26.52;96585.59;5021571;28;20029;-33
2022/03/03 07:12:55;;;;;;;12.68;4.00;;;;;;;25.76;26.60;96589.03;5028255;28;20033;-31
2022/03/03 07:15:24;;;;;;;9.30;3.42;;;;;;;25.76;26.41;96587.28;5024658;28;21851;-25
2022/03/03 07:17:56;;;;;;;11.52;3.63;;;;;;;25.77;26.70;96588.94;5028191;28;20028;-31
2022/03/03 07:20:30;;;;;;;9.38;3.83;;;;;;;25.79;26.27;96586.25;5025402;28;20574;-31
2022/03/03 07:23:03;;;;;;;8.13;3.83;;;;;;;25.80;26.58;96588.78;5029281;28;20517;-31
2022/03/03 07:25:37;;;;;;;7.15;3.20;;;;;;;25.82;26.33;96589.53;5033243;28;20113;-28
2022/03/03 07:28:04;;;;;;;7.90;3.55;;;;;;;25.82;26.45;96581.66;5032833;28;20037;-31
2022/03/03 07:30:32;;;;;;;7.10;3.22;;;;;;;25.85;26.72;96582.44;5018495;28;20021;-28
2022/03/03 07:33:06;;;;;;;9.55;3.55;;;;;;;25.87;26.14;96577.94;5000650;28;20631;-31
2022/03/03 07:35:31;;;;;;;9.05;3.20;;;;;;;25.87;26.44;96570.06;5031944;28;20092;-32
2022/03/03 07:38:04;;;;;;;6.82;3.25;;;;;;;25.90;26.68;96572.50;4994382;28;20616;-28
2022/03/03 07:40:30;;;;;;;10.95;3.40;;;;;;;25.92;26.22;96581.13;5011658;28;20505;-34
2022/03/03 07:42:56;;;;;;;17.35;5.97;;;;;;;25.92;26.23;96586.38;5031439;28;20033;-31
2022/03/03 07:45:21;;;;;;;8.30;3.60;;;;;;;25.93;25.79;96595.97;5012012;28;20605;-33
2022/03/03 07:47:51;;;;;;;16.35;4.13;;;;;;;25.92;25.79;96587.25;5030345;28;20038;-30
2022/03/03 07:50:16;;;;;;;7.25;4.07;;;;;;;25.95;26.05;96601.97;5031586;28;20033;-30
2022/03/03 07:52:44;;;;;;;13.20;4.82;;;;;;;25.94;25.52;96589.78;5036946;28;20110;-28
2022/03/03 07:55:10;;;;;;;13.23;5.28;;;;;;;25.96;25.93;96596.63;5030423;28;20029;-30
2022/03/03 07:57:40;;;;;;;20.38;5.53;;;;;;;25.98;25.53;96590.44;5030697;28;20028;-32
2022/03/03 08:00:10;;;;;;;13.90;6.03;;;;;;;26.00;25.91;96594.69;5014228;28;20323;-30
2022/03/03 08:02:36;;;;;;;17.17;6.93;;;;;;;26.01;25.75;96601.59;5029418;28;20640;-31
2022/03/03 08:05:02;;;;;;;24.33;7.22;;;;;;;26.01;25.09;96593.72;4999262;28;20059;-32
2022/03/03 08:07:27;;;;;;;39.85;10.18;;;;;;;26.01;24.89;96598.97;5033124;28;20063;-32
2022/03/03 08:09:57;;;;;;;17.23;6.45;;;;;;;26.00;24.53;96584.16;5031129;28;20029;-31
2022/03/03 08:12:23;;;;;;;18.42;7.05;;;;;;;26.03;25.22;96588.41;5032213;28;20036;-38
2022/03/03 08:14:49;;;;;;;17.25;6.60;;;;;;;26.05;25.14;96584.75;5020114;28;20082;-32
2022/03/03 08:17:15;;;;;;;21.45;7.55;;;;;;;26.06;24.93;96589.09;5032628;28;20029;-27
2022/03/03 08:19:42;;;;;;;23.80;7.15;;;;;;;26.09;25.58;96591.50;5040936;28;20032;-34
2022/03/03 08:22:08;;;;;;;17.95;7.45;;;;;;;26.12;25.73;96582.63;5022020;28;20029;-29
2022/03/03 08:24:33;;;;;;;16.45;6.93;;;;;;;26.15;25.49;96578.97;5017638;28;20797;-34
2022/03/03 08:27:00;;;;;;;21.63;7.53;;;;;;;26.19;25.76;96575.22;5019210;28;20499;-28
2022/03/03 08:29:25;;;;;;;20.27;6.28;;;;;;;26.21;25.82;96573.38;5021124;28;20094;-30
2022/03/03 08:31:54;;;;;;;13.40;6.28;;;;;;;26.24;25.68;96570.56;5038443;28;20021;-30
2022/03/03 08:34:37;;;;;;;16.23;6.43;;;;;;;26.28;25.48;96571.25;5019113;28;20035;-27
2022/03/03 08:37:03;;;;;;;13.30;5.60;;;;;;;26.31;25.47;96569.28;5022547;28;20028;-30
2022/03/03 08:39:29;;;;;;;13.75;5.82;;;;;;;26.33;25.52;96567.44;5022399;28;20103;-30
2022/03/03 08:41:58;;;;;;;15.95;5.80;;;;;;;26.37;25.60;96569.84;5003326;28;20151;-29
2022/03/03 08:44:27;;;;;;;11.23;5.38;;;;;;;26.39;25.95;96568.00;5039126;28;20029;-37
2022/03/03 08:46:52;;;;;;;11.25;5.03;;;;;;;26.41;25.62;96568.75;5037197;28;20541;-34
2022/03/03 08:49:18;;;;;;;12.48;5.55;;;;;;;26.44;25.72;96574.69;5004889;28;20060;-30
2022/03/03 08:51:43;;;;;;;14.00;5.13;;;;;;;26.46;25.68;96569.31;5006454;28;20422;-30
2022/03/03 08:54:11;;;;;;;11.90;4.85;;;;;;;26.50;25.55;96580.50;5036248;28;20529;-29
2022/03/03 08:56:36;;;;;;;11.43;4.63;;;;;;;26.52;25.97;96574.22;5043894;28;20041;-29
2022/03/03 08:59:01;;;;;;;10.25;4.88;;;;;;;26.54;25.60;96574.13;5040235;28;20032;-28
2022/03/03 09:01:28;;;;;;;10.48;4.97;;;;;;;26.54;26.06;96574.97;5036709;28;20593;-32
2022/03/03 09:03:53;;;;;;;9.50;4.35;;;;;;;26.56;25.74;96573.09;5042318;28;20064;-31
2022/03/03 09:06:19;;;;;;;10.38;4.82;;;;;;;26.57;26.07;96572.16;5033146;28;20037;-32
2022/03/03 09:08:44;;;;;;;13.70;4.75;;;;;;;26.60;25.92;96566.72;5038581;28;20039;-28
2022/03/03 09:11:10;;;;;;;11.15;4.07;;;;;;;26.61;25.77;96578.91;5039133;28;20021;-27
2022/03/03 09:13:35;;;;;;;11.50;5.10;;;;;;;26.64;25.58;96571.78;5024589;28;20021;-32
2022/03/03 09:16:01;;;;;;;9.57;4.47;;;;;;;26.64;25.74;96562.13;5025785;28;20052;-33
2022/03/03 09:18:27;;;;;;;9.93;4.30;;;;;;;26.66;25.92;96565.47;5024672;28;20028;-29
2022/03/03 09:20:52;;;;;;;30.02;7.97;;;;;;;26.67;25.09;96564.56;5032492;28;20642;-31
2022/03/03 09:23:18;;;;;;;15.27;5.45;;;;;;;26.67;24.92;96571.59;5028386;28;20021;-35
2022/03/03 09:25:43;;;;;;;25.52;13.13;;;;;;;26.61;22.61;96568.41;5027080;28;20033;-28
2022/03/03 09:28:09;;;;;;;20.02;14.23;;;;;;;26.48;20.74;96570.91;5028379;28;20114;-36
2022/03/03 09:30:34;;;;;;;17.33;14.23;;;;;;;26.29;19.62;96563.28;5034640;28;20526;-32
2022/03/03 09:32:59;;;;;;;23.08;14.05;;;;;;;26.11;18.87;96567.81;5035433;28;20029;-30
2022/03/03 09:35:28;;;;;;;21.88;13.63;;;;;;;25.93;19.06;96567.94;5016569;28;20035;-28
2022/03/03 09:37:53;;;;;;;16.52;12.18;;;;;;;25.82;19.82;96565.91;5012998;28;20503;-33
2022/03/03 09:40:19;;;;;;;16.42;11.23;;;;;;;25.76;20.34;96566.28;5025796;28;20029;-30
2022/03/03 09:43:04;;;;;;;15.00;9.50;;;;;;;25.75;20.86;96571.59;5029352;28;20422;-32
2022/03/03 09:45:30;;;;;;;14.43;9.10;;;;;;;25.73;21.05;96566.44;5012737;28;20556;-37
2022/03/03 09:47:57;;;;;;;12.57;7.32;;;;;;;25.74;21.50;96568.13;5028825;28;20539;-30
2022/03/03 09:50:23;;;;;;;12.52;7.55;;;;;;;25.77;21.57;96573.22;5026955;28;20029;-33
2022/03/03 09:52:49;;;;;;;17.38;6.63;;;;;;;25.82;21.75;96571.16;5006857;28;20110;-32
2022/03/03 09:55:14;;;;;;;8.80;6.40;;;;;;;25.86;22.04;96565.75;5025187;28;20053;-33
2022/03/03 09:57:40;;;;;;;12.15;6.05;;;;;;;25.93;22.13;96577.59;5026222;28;20179;-30
2022/03/03 10:00:08;;;;;;;13.40;5.85;;;;;;;25.97;22.26;96573.84;5029176;28;20755;-35
2022/03/03 10:02:55;;;;;;;13.77;5.72;;;;;;;26.02;22.52;96571.81;5025164;28;20025;-32
2022/03/03 10:05:32;;;;;;;10.30;5.82;;;;;;;26.04;22.52;96575.19;5035491;28;20954;-33
2022/03/03 10:08:10;;;;;;;10.20;5.30;;;;;;;26.08;22.74;96563.56;5019274;28;20182;-32
2022/03/03 10:10:40;;;;;;;8.23;4.60;;;;;;;26.13;22.80;96575.59;5021862;28;20115;-31
2022/03/03 10:13:05;;;;;;;8.63;5.22;;;;;;;26.17;23.00;96569.22;5017807;28;20119;-29
2022/03/03 10:15:31;;;;;;;9.05;5.00;;;;;;;26.20;22.89;96563.81;5020721;28;20036;-29
2022/03/03 10:18:04;;;;;;;6.82;4.80;;;;;;;26.23;22.95;96560.97;5016380;28;20523;-31
2022/03/03 10:20:30;;;;;;;8.40;4.90;;;;;;;26.26;23.09;96555.59;5017442;28;20037;-31
2022/03/03 10:22:58;;;;;;;8.07;4.70;;;;;;;26.28;23.24;96556.31;5006602;28;20040;-26
2022/03/03 10:25:28;;;;;;;9.32;4.65;;;;;;;26.34;23.15;96561.22;5025846;28;20789;-32
2022/03/03 10:27:54;;;;;;;6.10;4.32;;;;;;;26.33;23.41;96559.56;5022825;28;20091;-33
2022/03/03 10:30:19;;;;;;;8.25;4.70;;;;;;;26.39;23.46;96568.81;5023317;28;20041;-31
2022/03/03 10:32:46;;;;;;;6.60;4.32;;;;;;;26.43;23.48;96569.50;5026420;28;20056;-32
2022/03/03 10:35:14;;;;;;;8.23;4.45;;;;;;;26.46;23.52;96564.91;5023910;28;20029;-29
2022/03/03 10:37:39;;;;;;;6.70;4.30;;;;;;;26.50;23.53;96567.38;5022548;28;20037;-30
2022/03/03 10:40:05;;;;;;;6.03;4.40;;;;;;;26.51;23.56;96567.28;5023200;28;20030;-34
2022/03/03 10:42:31;;;;;;;9.55;4.60;;;;;;;26.53;23.61;96554.03;5005604;28;20044;-31
2022/03/03 10:45:11;;;;;;;10.45;4.45;;;;;;;26.54;23.65;96566.25;5025402;28;20539;-28
2022/03/03 10:47:36;;;;;;;7.50;4.13;;;;;;;26.56;23.78;96565.22;5024379;28;20061;-32
2022/03/03 10:50:02;;;;;;;6.70;4.47;;;;;;;26.57;23.75;96560.78;5021202;28;20029;-30
2022/03/03 10:52:34;;;;;;;9.00;4.18;;;;;;;26.58;23.64;96567.75;5018625;28;20744;-31
2022/03/03 10:55:15;;;;;;;6.63;3.83;;;;;;;26.60;23.96;96565.88;5024132;28;20033;-29
2022/03/03 10:57:51;;;;;;;5.05;4.05;;;;;;;26.60;23.87;96561.47;5021041;28;20060;-29
2022/03/03 11:00:24;;;;;;;5.40;3.90;;;;;;;26.63;24.00;96570.09;5022851;28;20017;-29
2022/03/03 11:02:56;;;;;;;6.55;4.10;;;;;;;26.64;24.07;96561.25;5016378;28;20122;-27
2022/03/03 11:05:23;;;;;;;20.30;5.50;;;;;;;26.64;23.87;96556.00;5022777;28;20036;-31
2022/03/03 11:07:49;;;;;;;8.88;5.68;;;;;;;26.65;23.76;96541.94;5022494;28;20402;-30
2022/03/03 11:10:16;;;;;;;11.52;6.00;;;;;;;26.64;23.48;96550.75;5019355;28;20029;-26
2022/03/03 11:12:43;;;;;;;8.90;5.40;;;;;;;26.65;23.49;96536.69;5019522;28;20029;-27
2022/03/03 11:15:08;;;;;;;12.15;5.97;;;;;;;26.65;23.27;96539.31;5012408;28;20472;-28
2022/03/03 11:17:35;;;;;;;10.65;6.00;;;;;;;26.63;23.28;96538.56;5004825;28;20037;-31
2022/03/03 11:20:00;;;;;;;8.23;5.82;;;;;;;26.61;23.19;96536.88;5003164;28;20087;-32
2022/03/03 11:22:27;;;;;;;12.63;6.05;;;;;;;26.61;23.13;96536.88;5001507;28;20030;-28
2022/03/03 11:24:52;;;;;;;10.48;6.25;;;;;;;26.60;23.05;96527.31;5001446;28;20022;-30
2022/03/03 11:27:18;;;;;;;9.43;6.18;;;;;;;26.60;23.10;96529.94;4983871;28;20171;-31
2022/03/03 11:30:18;;;;;;;9.57;4.20;;;;;;;26.60;23.27;96524.69;5006327;28;20033;-29
2022/03/03 11:32:44;;;;;;;7.15;3.47;;;;;;;26.62;23.56;96521.97;5005751;28;23058;-29